createdAt,value
2023-06-08T10:25:37.965Z,26.50
2023-06-08T10:28:08.689Z,26.50
2023-06-08T10:30:42.683Z,26.50
2023-06-08T10:33:12.619Z,26.50
2023-06-08T10:35:42.737Z,26.50
2023-06-08T10:44:32.744Z,26.60
2023-06-08T10:47:03.092Z,26.60
2023-06-08T10:49:36.173Z,26.60
2023-06-08T10:52:06.998Z,26.60
2023-06-08T10:54:53.963Z,26.70
2023-06-08T10:57:41.386Z,26.70
2023-06-08T11:00:45.766Z,26.80
2023-06-08T11:03:23.378Z,26.90
2023-06-08T11:05:54.966Z,26.80
2023-06-08T11:08:24.363Z,27.00
2023-06-08T11:10:57.581Z,27.00
2023-06-08T11:13:26.669Z,27.10
2023-06-08T11:15:57.899Z,27.20
2023-06-08T11:18:26.902Z,27.20
2023-06-08T11:20:59.882Z,27.20
2023-06-08T11:23:33.404Z,27.20
2023-06-08T11:26:02.929Z,27.20
2023-06-08T11:28:31.636Z,27.20
2023-06-08T11:31:08.473Z,27.10
2023-06-08T11:33:36.928Z,27.10
2023-06-08T11:36:07.604Z,27.00
2023-06-08T11:39:46.007Z,27.00
2023-06-08T11:42:16.252Z,26.90
2023-06-08T11:44:59.446Z,27.00
2023-06-08T11:51:07.082Z,26.70
2023-06-08T11:53:51.714Z,26.60
2023-06-08T12:00:49.372Z,26.40
2023-06-08T12:03:55.326Z,26.30
2023-06-08T12:06:49.050Z,26.20
2023-06-08T12:09:29.619Z,26.00
2023-06-08T12:12:14.250Z,26.00
2023-06-08T12:15:03.295Z,25.90
2023-06-08T12:17:51.408Z,25.80
2023-06-08T12:20:42.546Z,25.70
2023-06-08T12:23:30.356Z,25.70
2023-06-08T12:26:02.298Z,25.60
2023-06-08T12:28:38.533Z,25.40
2023-06-08T12:31:17.363Z,25.40
2023-06-08T12:33:55.313Z,25.30
2023-06-08T12:37:00.984Z,25.40
2023-06-08T12:39:43.380Z,25.20
2023-06-08T12:42:16.229Z,25.10
2023-06-08T12:44:49.758Z,25.00
2023-06-08T12:47:21.098Z,24.90
2023-06-08T12:49:52.646Z,24.70
2023-06-08T12:52:23.543Z,24.80
2023-06-08T12:54:52.533Z,24.70
2023-06-08T12:57:27.708Z,24.60
2023-06-08T13:00:10.446Z,24.60
2023-06-08T13:02:48.485Z,24.50
2023-06-08T13:05:17.833Z,24.50
2023-06-08T13:07:48.415Z,24.40
2023-06-08T13:10:17.631Z,24.40
2023-06-08T13:12:50.051Z,24.40
2023-06-08T13:15:19.772Z,24.30
2023-06-08T13:17:49.787Z,24.20
2023-06-08T13:20:19.020Z,24.20
2023-06-08T13:22:49.492Z,24.20
2023-06-08T13:25:19.245Z,24.10
2023-06-08T13:27:53.005Z,24.10
2023-06-08T13:30:23.137Z,24.20
2023-06-08T13:33:05.522Z,24.10
2023-06-08T13:35:35.135Z,24.00
2023-06-08T13:38:05.731Z,24.00
2023-06-08T13:40:36.203Z,24.00
2023-06-08T13:43:05.309Z,23.90
2023-06-08T13:45:35.763Z,23.90
2023-06-08T13:48:05.371Z,23.90
2023-06-08T13:50:34.700Z,23.90
2023-06-08T13:53:04.854Z,23.90
2023-06-08T13:55:34.026Z,23.90
2023-06-08T13:58:03.350Z,23.90
2023-06-08T14:00:31.964Z,23.70
2023-06-08T14:03:01.539Z,23.90
2023-06-08T14:05:55.892Z,23.90
2023-06-08T14:08:26.592Z,23.90
2023-06-08T14:10:55.752Z,23.80
2023-06-08T14:13:24.454Z,24.00
2023-06-08T14:15:53.163Z,24.10
2023-06-08T14:18:21.938Z,24.10
2023-06-08T14:20:50.843Z,24.10
2023-06-08T14:23:20.797Z,24.20
2023-06-08T14:25:51.150Z,24.20
2023-06-08T14:28:20.001Z,24.30
2023-06-08T14:30:54.532Z,24.40
2023-06-08T14:33:23.872Z,24.50
2023-06-08T14:36:08.595Z,24.60
2023-06-08T14:38:37.612Z,24.80
2023-06-08T14:41:07.711Z,24.80
2023-06-08T14:43:36.661Z,24.80
2023-06-08T14:46:05.588Z,24.90
2023-06-08T14:48:37.389Z,25.00
2023-06-08T14:51:15.139Z,25.10
2023-06-08T14:53:53.552Z,25.20
2023-06-08T14:56:39.505Z,25.30
2023-06-08T15:00:06.100Z,25.40
2023-06-08T15:02:41.402Z,25.50
2023-06-08T15:05:38.100Z,25.70
2023-06-08T15:08:07.070Z,25.80
2023-06-08T15:10:40.990Z,25.90
2023-06-08T15:13:13.695Z,26.00
2023-06-08T15:15:42.622Z,26.00
2023-06-08T15:18:12.021Z,26.20
2023-06-08T15:20:43.242Z,26.30
2023-06-08T15:23:13.870Z,26.40
2023-06-08T15:25:42.752Z,26.50
2023-06-08T15:28:16.677Z,26.60
2023-06-08T15:30:45.603Z,26.70
2023-06-08T15:33:14.402Z,26.80
2023-06-08T15:35:43.147Z,26.90
2023-06-08T15:38:13.342Z,27.00
2023-06-08T15:40:42.151Z,27.10
2023-06-08T15:43:10.706Z,27.20
2023-06-08T15:45:40.669Z,27.30
2023-06-08T15:48:11.672Z,27.30
2023-06-08T15:50:40.402Z,27.30
2023-06-08T15:53:08.884Z,27.40
2023-06-08T15:55:37.849Z,27.40
2023-06-08T15:58:08.734Z,27.40
2023-06-08T16:00:41.253Z,27.40
2023-06-08T16:03:09.943Z,27.40
2023-06-08T16:05:38.519Z,27.40
2023-06-08T16:08:07.428Z,27.30
2023-06-08T16:10:35.931Z,27.30
2023-06-08T16:16:23.466Z,27.10
2023-06-08T16:19:09.873Z,27.20
2023-06-08T16:24:32.739Z,27.20
2023-06-08T16:27:02.113Z,27.20
2023-06-08T16:29:30.618Z,27.20
2023-06-08T16:32:00.675Z,27.20
2023-06-08T16:34:29.388Z,27.20
2023-06-08T16:36:57.928Z,27.20
2023-06-08T16:39:26.464Z,27.20
2023-06-08T16:42:23.639Z,27.20
2023-06-08T16:44:52.809Z,27.10
2023-06-08T16:47:22.804Z,27.10
2023-06-08T16:49:51.284Z,27.10
2023-06-08T16:52:19.710Z,27.00
2023-06-08T16:54:48.489Z,26.90
2023-06-08T16:57:17.074Z,26.90
2023-06-08T16:59:45.688Z,26.80
2023-06-08T17:02:14.172Z,26.70
2023-06-08T17:04:44.132Z,26.60
2023-06-08T17:07:13.103Z,26.50
2023-06-08T17:09:41.684Z,26.40
2023-06-08T17:12:12.092Z,26.30
2023-06-08T17:14:40.553Z,26.30
2023-06-08T17:20:32.401Z,26.10
2023-06-08T17:23:04.636Z,26.00
2023-06-08T17:25:33.263Z,25.90
2023-06-08T17:28:04.219Z,25.90
2023-06-08T17:30:32.705Z,25.80
2023-06-08T17:33:49.262Z,25.50
2023-06-08T17:36:31.372Z,25.70
2023-06-08T17:38:59.962Z,25.60
2023-06-08T17:41:28.897Z,25.50
2023-06-08T17:43:57.449Z,25.40
2023-06-08T17:46:26.057Z,25.40
2023-06-08T17:48:54.700Z,25.30
2023-06-08T17:51:39.332Z,25.30
2023-06-08T17:54:18.600Z,25.20
2023-06-08T17:56:47.097Z,25.20
2023-06-08T17:59:16.294Z,25.10
2023-06-08T18:01:45.131Z,25.00
2023-06-08T18:04:14.339Z,25.00
2023-06-08T18:06:44.154Z,25.00
2023-06-08T18:09:14.750Z,24.90
2023-06-08T18:11:43.927Z,24.80
2023-06-08T18:14:15.045Z,24.80
2023-06-08T18:16:45.117Z,24.80
2023-06-08T18:19:13.548Z,24.80
2023-06-08T18:21:43.579Z,24.70
2023-06-08T18:24:12.137Z,24.70
2023-06-08T18:26:41.200Z,24.60
2023-06-08T18:29:10.064Z,24.60
2023-06-08T18:31:38.538Z,24.60
2023-06-08T18:34:07.077Z,24.50
2023-06-08T18:36:35.540Z,24.50
2023-06-08T18:39:05.751Z,24.50
2023-06-08T18:41:34.142Z,24.40
2023-06-08T18:44:02.548Z,24.40
2023-06-08T18:46:30.952Z,24.30
2023-06-08T18:49:01.620Z,24.30
2023-06-08T18:51:30.035Z,24.20
2023-06-08T18:53:58.426Z,24.20
2023-06-08T18:56:28.970Z,24.20
2023-06-08T18:58:57.498Z,24.20
2023-06-08T19:01:25.954Z,24.10
2023-06-08T19:03:54.983Z,24.10
2023-06-08T19:06:23.724Z,24.10
2023-06-08T19:08:52.236Z,24.00
2023-06-08T19:11:21.520Z,24.00
2023-06-08T19:13:51.429Z,24.00
2023-06-08T19:16:20.028Z,23.90
2023-06-08T19:18:50.006Z,23.90
2023-06-08T19:21:20.220Z,23.90
2023-06-08T19:23:48.644Z,23.80
2023-06-08T19:26:17.325Z,23.80
2023-06-08T19:28:45.838Z,23.80
2023-06-08T19:31:15.644Z,23.70
2023-06-08T19:33:44.118Z,23.70
2023-06-08T19:36:12.558Z,23.70
2023-06-08T19:38:41.130Z,23.70
2023-06-08T19:41:09.489Z,23.60
2023-06-08T19:43:37.826Z,23.60
2023-06-08T19:46:07.570Z,23.50
2023-06-08T19:48:38.977Z,23.50
2023-06-08T19:51:08.927Z,23.50
2023-06-08T19:53:37.790Z,23.50
2023-06-08T19:56:06.890Z,23.50
2023-06-08T19:58:35.426Z,23.40
2023-06-08T20:01:04.114Z,23.40
2023-06-08T20:03:32.698Z,23.40
2023-06-08T20:06:02.508Z,23.40
2023-06-08T20:08:31.892Z,23.30
2023-06-08T20:11:01.611Z,23.30
2023-06-08T20:13:32.234Z,23.30
2023-06-08T20:16:00.976Z,23.30
2023-06-08T20:18:29.531Z,23.20
2023-06-08T20:20:57.916Z,23.20
2023-06-08T20:23:27.734Z,23.20
2023-06-08T20:25:57.129Z,23.20
2023-06-08T20:28:26.177Z,23.20
2023-06-08T20:30:55.710Z,23.10
2023-06-08T20:33:24.459Z,23.10
2023-06-08T20:35:52.876Z,23.10
2023-06-08T20:38:21.275Z,23.10
2023-06-08T20:40:51.171Z,23.10
2023-06-08T20:43:19.597Z,23.00
2023-06-08T20:45:49.374Z,23.00
2023-06-08T20:48:17.988Z,23.00
2023-06-08T20:50:46.624Z,23.00
2023-06-08T20:53:15.060Z,22.90
2023-06-08T20:55:44.313Z,22.90
2023-06-08T20:58:15.060Z,22.90
2023-06-08T21:00:44.170Z,22.90
2023-06-08T21:03:15.895Z,22.90
2023-06-08T21:05:46.229Z,22.80
2023-06-08T21:08:15.050Z,22.80
2023-06-08T21:10:43.509Z,22.80
2023-06-08T21:13:13.272Z,22.80
2023-06-08T21:15:41.765Z,22.80
2023-06-08T21:18:10.233Z,22.80
2023-06-08T21:20:38.693Z,22.70
2023-06-08T21:23:07.382Z,22.70
2023-06-08T21:25:35.990Z,22.70
2023-06-08T21:28:04.673Z,22.70
2023-06-08T21:30:34.737Z,22.70
2023-06-08T21:33:03.181Z,22.70
2023-06-08T21:35:31.613Z,22.60
2023-06-08T21:38:00.059Z,22.60
2023-06-08T21:40:28.882Z,22.60
2023-06-08T21:42:57.416Z,22.60
2023-06-08T21:45:25.805Z,22.60
2023-06-08T21:47:58.236Z,22.60
2023-06-08T21:50:27.121Z,22.50
2023-06-08T21:52:55.566Z,22.50
2023-06-08T21:55:23.988Z,22.50
2023-06-08T21:57:52.471Z,22.40
2023-06-08T22:00:20.996Z,22.40
2023-06-08T22:02:49.395Z,22.40
2023-06-08T22:05:19.248Z,22.30
2023-06-08T22:07:48.342Z,22.30
2023-06-08T22:10:16.835Z,22.30
2023-06-08T22:12:46.247Z,22.20
2023-06-08T22:15:14.737Z,22.30
2023-06-08T22:17:45.878Z,22.20
2023-06-08T22:20:15.607Z,22.20
2023-06-08T22:22:45.752Z,22.10
2023-06-08T22:25:14.363Z,22.10
2023-06-08T22:27:42.893Z,22.10
2023-06-08T22:30:12.994Z,22.00
2023-06-08T22:32:42.480Z,22.00
2023-06-08T22:35:11.781Z,22.00
2023-06-08T22:37:40.214Z,21.90
2023-06-08T22:40:11.347Z,21.90
2023-06-08T22:42:39.890Z,21.90
2023-06-08T22:45:09.814Z,21.90
2023-06-08T22:47:42.992Z,21.80
2023-06-08T22:50:12.432Z,21.80
2023-06-08T22:52:41.372Z,21.80
2023-06-08T22:55:11.682Z,21.70
2023-06-08T22:57:40.118Z,21.70
2023-06-08T23:00:11.638Z,21.70
2023-06-08T23:02:41.105Z,21.60
2023-06-08T23:05:10.847Z,21.60
2023-06-08T23:07:39.957Z,21.60
2023-06-08T23:10:13.758Z,21.50
2023-06-08T23:12:43.317Z,21.50
2023-06-08T23:15:14.485Z,21.50
2023-06-08T23:17:43.734Z,21.40
2023-06-08T23:20:13.703Z,21.40
2023-06-08T23:22:42.209Z,21.40
2023-06-08T23:25:14.474Z,21.40
2023-06-08T23:27:43.006Z,21.30
2023-06-08T23:30:13.170Z,21.30
2023-06-08T23:32:41.631Z,21.30
2023-06-08T23:35:10.984Z,21.20
2023-06-08T23:37:39.475Z,21.20
2023-06-08T23:40:09.778Z,21.20
2023-06-08T23:42:40.191Z,21.10
2023-06-08T23:45:10.925Z,21.10
2023-06-08T23:47:39.597Z,21.10
2023-06-08T23:50:09.272Z,21.10
2023-06-08T23:52:38.370Z,21.00
2023-06-08T23:55:08.446Z,21.00
2023-06-08T23:57:37.175Z,20.90
